sensor_id;sensor_type;location;lat;lon;timestamp;P1;durP1;ratioP1;P2;durP2;ratioP2
19621;SDS011;9958;33.196;-97.114;2022-12-13T00:01:26;14.65;;;7.32;;
19621;SDS011;9958;33.196;-97.114;2022-12-13T00:03:57;16.02;;;7.40;;
19621;SDS011;9958;33.196;-97.114;2022-12-13T00:06:27;12.02;;;7.07;;
19621;SDS011;9958;33.196;-97.114;2022-12-13T00:08:56;15.48;;;8.55;;
19621;SDS011;9958;33.196;-97.114;2022-12-13T00:11:25;14.65;;;7.40;;
19621;SDS011;9958;33.196;-97.114;2022-12-13T00:13:53;13.32;;;7.13;;
19621;SDS011;9958;33.196;-97.114;2022-12-13T00:16:23;16.88;;;7.65;;
19621;SDS011;9958;33.196;-97.114;2022-12-13T00:18:52;16.58;;;7.95;;
19621;SDS011;9958;33.196;-97.114;2022-12-13T00:21:24;18.42;;;7.93;;
19621;SDS011;9958;33.196;-97.114;2022-12-13T00:23:53;16.00;;;7.90;;
19621;SDS011;9958;33.196;-97.114;2022-12-13T00:26:23;16.73;;;7.72;;
19621;SDS011;9958;33.196;-97.114;2022-12-13T00:28:52;18.52;;;8.43;;
19621;SDS011;9958;33.196;-97.114;2022-12-13T00:31:21;17.83;;;8.43;;
19621;SDS011;9958;33.196;-97.114;2022-12-13T00:33:50;13.15;;;8.13;;
19621;SDS011;9958;33.196;-97.114;2022-12-13T00:36:18;15.85;;;8.23;;
19621;SDS011;9958;33.196;-97.114;2022-12-13T00:38:48;19.15;;;9.18;;
19621;SDS011;9958;33.196;-97.114;2022-12-13T00:41:25;18.70;;;8.23;;
19621;SDS011;9958;33.196;-97.114;2022-12-13T00:43:54;17.85;;;8.95;;
19621;SDS011;9958;33.196;-97.114;2022-12-13T00:46:23;16.88;;;8.25;;
19621;SDS011;9958;33.196;-97.114;2022-12-13T00:48:52;21.83;;;8.13;;
19621;SDS011;9958;33.196;-97.114;2022-12-13T00:51:22;15.48;;;8.52;;
19621;SDS011;9958;33.196;-97.114;2022-12-13T00:53:52;14.25;;;7.82;;
19621;SDS011;9958;33.196;-97.114;2022-12-13T00:56:22;20.63;;;8.73;;
19621;SDS011;9958;33.196;-97.114;2022-12-13T00:58:51;18.90;;;8.98;;
19621;SDS011;9958;33.196;-97.114;2022-12-13T01:01:22;17.95;;;8.40;;
19621;SDS011;9958;33.196;-97.114;2022-12-13T01:03:52;14.80;;;8.43;;
19621;SDS011;9958;33.196;-97.114;2022-12-13T01:06:21;13.77;;;8.45;;
19621;SDS011;9958;33.196;-97.114;2022-12-13T01:08:55;14.90;;;8.88;;
19621;SDS011;9958;33.196;-97.114;2022-12-13T01:11:23;18.08;;;8.27;;
19621;SDS011;9958;33.196;-97.114;2022-12-13T01:13:52;18.20;;;8.82;;
19621;SDS011;9958;33.196;-97.114;2022-12-13T01:16:20;15.98;;;9.15;;
19621;SDS011;9958;33.196;-97.114;2022-12-13T01:18:49;19.30;;;8.80;;
19621;SDS011;9958;33.196;-97.114;2022-12-13T01:21:18;17.00;;;8.57;;
19621;SDS011;9958;33.196;-97.114;2022-12-13T01:23:47;17.60;;;8.38;;
19621;SDS011;9958;33.196;-97.114;2022-12-13T01:26:18;17.27;;;8.38;;
19621;SDS011;9958;33.196;-97.114;2022-12-13T01:28:47;15.35;;;8.52;;
19621;SDS011;9958;33.196;-97.114;2022-12-13T01:31:17;16.23;;;8.20;;
19621;SDS011;9958;33.196;-97.114;2022-12-13T01:33:46;17.60;;;8.32;;
19621;SDS011;9958;33.196;-97.114;2022-12-13T01:36:15;14.45;;;7.80;;
19621;SDS011;9958;33.196;-97.114;2022-12-13T01:38:45;15.38;;;8.02;;
19621;SDS011;9958;33.196;-97.114;2022-12-13T01:41:13;11.48;;;7.03;;
19621;SDS011;9958;33.196;-97.114;2022-12-13T01:43:51;15.32;;;7.50;;
19621;SDS011;9958;33.196;-97.114;2022-12-13T01:46:22;16.77;;;8.05;;
19621;SDS011;9958;33.196;-97.114;2022-12-13T01:48:52;18.40;;;8.25;;
19621;SDS011;9958;33.196;-97.114;2022-12-13T01:51:26;14.32;;;7.15;;
19621;SDS011;9958;33.196;-97.114;2022-12-13T01:53:58;11.45;;;7.38;;
19621;SDS011;9958;33.196;-97.114;2022-12-13T01:56:30;11.35;;;6.63;;
19621;SDS011;9958;33.196;-97.114;2022-12-13T01:59:04;13.18;;;7.50;;
19621;SDS011;9958;33.196;-97.114;2022-12-13T02:01:34;14.15;;;7.88;;
19621;SDS011;9958;33.196;-97.114;2022-12-13T02:04:03;11.82;;;6.43;;
19621;SDS011;9958;33.196;-97.114;2022-12-13T02:06:33;14.68;;;7.45;;
19621;SDS011;9958;33.196;-97.114;2022-12-13T02:09:03;12.65;;;7.50;;
19621;SDS011;9958;33.196;-97.114;2022-12-13T02:11:33;11.52;;;6.60;;
19621;SDS011;9958;33.196;-97.114;2022-12-13T02:14:04;13.88;;;6.93;;
19621;SDS011;9958;33.196;-97.114;2022-12-13T02:16:37;11.30;;;7.03;;
19621;SDS011;9958;33.196;-97.114;2022-12-13T02:19:28;13.48;;;7.00;;
19621;SDS011;9958;33.196;-97.114;2022-12-13T02:22:40;10.82;;;6.32;;
19621;SDS011;9958;33.196;-97.114;2022-12-13T02:25:36;9.98;;;6.20;;
19621;SDS011;9958;33.196;-97.114;2022-12-13T02:28:16;9.88;;;6.20;;
19621;SDS011;9958;33.196;-97.114;2022-12-13T02:30:58;9.20;;;6.20;;
19621;SDS011;9958;33.196;-97.114;2022-12-13T02:33:38;10.70;;;6.97;;
19621;SDS011;9958;33.196;-97.114;2022-12-13T02:36:18;10.90;;;6.47;;
19621;SDS011;9958;33.196;-97.114;2022-12-13T02:38:52;11.00;;;6.00;;
19621;SDS011;9958;33.196;-97.114;2022-12-13T02:41:26;15.60;;;6.63;;
19621;SDS011;9958;33.196;-97.114;2022-12-13T02:44:04;10.40;;;6.65;;
19621;SDS011;9958;33.196;-97.114;2022-12-13T02:46:37;9.52;;;6.13;;
19621;SDS011;9958;33.196;-97.114;2022-12-13T02:49:17;10.00;;;6.07;;
19621;SDS011;9958;33.196;-97.114;2022-12-13T02:51:47;11.50;;;6.32;;
19621;SDS011;9958;33.196;-97.114;2022-12-13T02:54:18;7.80;;;5.95;;
19621;SDS011;9958;33.196;-97.114;2022-12-13T02:56:52;8.43;;;5.85;;
19621;SDS011;9958;33.196;-97.114;2022-12-13T02:59:21;9.32;;;6.15;;
19621;SDS011;9958;33.196;-97.114;2022-12-13T03:01:56;13.43;;;7.60;;
19621;SDS011;9958;33.196;-97.114;2022-12-13T03:04:32;11.38;;;6.10;;
19621;SDS011;9958;33.196;-97.114;2022-12-13T03:07:33;10.45;;;6.10;;
19621;SDS011;9958;33.196;-97.114;2022-12-13T03:10:11;10.18;;;6.65;;
19621;SDS011;9958;33.196;-97.114;2022-12-13T03:12:45;12.90;;;6.72;;
19621;SDS011;9958;33.196;-97.114;2022-12-13T03:15:38;11.23;;;7.35;;
19621;SDS011;9958;33.196;-97.114;2022-12-13T03:18:13;9.27;;;5.95;;
19621;SDS011;9958;33.196;-97.114;2022-12-13T03:20:44;10.27;;;6.53;;
19621;SDS011;9958;33.196;-97.114;2022-12-13T03:23:14;10.30;;;6.85;;
19621;SDS011;9958;33.196;-97.114;2022-12-13T03:25:46;9.50;;;6.68;;
19621;SDS011;9958;33.196;-97.114;2022-12-13T03:28:18;11.75;;;7.07;;
19621;SDS011;9958;33.196;-97.114;2022-12-13T03:30:47;12.55;;;6.57;;
19621;SDS011;9958;33.196;-97.114;2022-12-13T03:33:17;9.48;;;6.22;;
19621;SDS011;9958;33.196;-97.114;2022-12-13T03:35:46;9.70;;;6.18;;
19621;SDS011;9958;33.196;-97.114;2022-12-13T03:38:15;10.77;;;6.60;;
19621;SDS011;9958;33.196;-97.114;2022-12-13T03:40:44;13.18;;;6.18;;
19621;SDS011;9958;33.196;-97.114;2022-12-13T03:43:13;9.20;;;6.32;;
19621;SDS011;9958;33.196;-97.114;2022-12-13T03:45:41;11.27;;;6.75;;
19621;SDS011;9958;33.196;-97.114;2022-12-13T03:48:10;9.15;;;5.93;;
19621;SDS011;9958;33.196;-97.114;2022-12-13T03:50:39;12.45;;;6.60;;
19621;SDS011;9958;33.196;-97.114;2022-12-13T03:53:08;13.23;;;7.03;;
19621;SDS011;9958;33.196;-97.114;2022-12-13T03:55:36;13.55;;;6.07;;
19621;SDS011;9958;33.196;-97.114;2022-12-13T03:58:04;13.88;;;6.00;;
19621;SDS011;9958;33.196;-97.114;2022-12-13T04:00:33;9.75;;;6.20;;
19621;SDS011;9958;33.196;-97.114;2022-12-13T04:03:01;9.18;;;5.85;;
19621;SDS011;9958;33.196;-97.114;2022-12-13T04:05:29;7.80;;;5.47;;
19621;SDS011;9958;33.196;-97.114;2022-12-13T04:08:00;8.00;;;5.30;;
19621;SDS011;9958;33.196;-97.114;2022-12-13T04:10:28;8.95;;;5.25;;
19621;SDS011;9958;33.196;-97.114;2022-12-13T04:12:56;9.85;;;5.57;;
19621;SDS011;9958;33.196;-97.114;2022-12-13T04:15:41;7.00;;;5.32;;
19621;SDS011;9958;33.196;-97.114;2022-12-13T04:18:13;10.38;;;4.80;;
19621;SDS011;9958;33.196;-97.114;2022-12-13T04:20:42;6.70;;;5.00;;
19621;SDS011;9958;33.196;-97.114;2022-12-13T04:23:12;9.80;;;5.00;;
19621;SDS011;9958;33.196;-97.114;2022-12-13T04:25:40;7.53;;;4.75;;
19621;SDS011;9958;33.196;-97.114;2022-12-13T04:28:09;8.00;;;5.00;;
19621;SDS011;9958;33.196;-97.114;2022-12-13T04:30:38;8.48;;;5.40;;
19621;SDS011;9958;33.196;-97.114;2022-12-13T04:33:06;7.15;;;4.38;;
19621;SDS011;9958;33.196;-97.114;2022-12-13T04:35:34;8.55;;;5.05;;
19621;SDS011;9958;33.196;-97.114;2022-12-13T04:38:02;9.23;;;5.13;;
19621;SDS011;9958;33.196;-97.114;2022-12-13T04:40:32;7.55;;;4.95;;
19621;SDS011;9958;33.196;-97.114;2022-12-13T04:43:01;8.00;;;5.13;;
19621;SDS011;9958;33.196;-97.114;2022-12-13T04:45:29;9.82;;;5.15;;
19621;SDS011;9958;33.196;-97.114;2022-12-13T04:47:58;7.78;;;5.13;;
19621;SDS011;9958;33.196;-97.114;2022-12-13T04:50:26;8.00;;;4.97;;
19621;SDS011;9958;33.196;-97.114;2022-12-13T04:52:54;9.88;;;4.82;;
19621;SDS011;9958;33.196;-97.114;2022-12-13T04:55:23;14.27;;;5.63;;
19621;SDS011;9958;33.196;-97.114;2022-12-13T04:57:52;8.32;;;5.43;;
19621;SDS011;9958;33.196;-97.114;2022-12-13T05:00:21;10.35;;;5.50;;
19621;SDS011;9958;33.196;-97.114;2022-12-13T05:02:49;12.88;;;5.93;;
19621;SDS011;9958;33.196;-97.114;2022-12-13T05:05:17;10.23;;;5.60;;
19621;SDS011;9958;33.196;-97.114;2022-12-13T05:07:46;8.55;;;5.35;;
19621;SDS011;9958;33.196;-97.114;2022-12-13T05:10:14;9.32;;;4.95;;
19621;SDS011;9958;33.196;-97.114;2022-12-13T05:12:43;10.88;;;5.80;;
19621;SDS011;9958;33.196;-97.114;2022-12-13T05:15:12;12.43;;;6.43;;
19621;SDS011;9958;33.196;-97.114;2022-12-13T05:17:41;9.40;;;5.20;;
19621;SDS011;9958;33.196;-97.114;2022-12-13T05:20:09;9.95;;;5.57;;
19621;SDS011;9958;33.196;-97.114;2022-12-13T05:22:38;9.38;;;5.80;;
19621;SDS011;9958;33.196;-97.114;2022-12-13T05:25:06;13.07;;;6.20;;
19621;SDS011;9958;33.196;-97.114;2022-12-13T05:27:35;11.90;;;6.25;;
19621;SDS011;9958;33.196;-97.114;2022-12-13T05:30:04;10.35;;;6.57;;
19621;SDS011;9958;33.196;-97.114;2022-12-13T05:32:34;10.60;;;5.70;;
19621;SDS011;9958;33.196;-97.114;2022-12-13T05:35:04;10.07;;;5.75;;
19621;SDS011;9958;33.196;-97.114;2022-12-13T05:37:33;9.77;;;6.50;;
19621;SDS011;9958;33.196;-97.114;2022-12-13T05:40:02;9.85;;;5.53;;
19621;SDS011;9958;33.196;-97.114;2022-12-13T05:42:31;11.80;;;6.10;;
19621;SDS011;9958;33.196;-97.114;2022-12-13T05:44:59;8.38;;;5.53;;
19621;SDS011;9958;33.196;-97.114;2022-12-13T05:47:27;12.20;;;5.80;;
19621;SDS011;9958;33.196;-97.114;2022-12-13T05:49:57;9.88;;;5.32;;
19621;SDS011;9958;33.196;-97.114;2022-12-13T05:52:26;11.07;;;5.90;;
19621;SDS011;9958;33.196;-97.114;2022-12-13T05:54:54;9.18;;;5.80;;
19621;SDS011;9958;33.196;-97.114;2022-12-13T05:57:23;9.80;;;5.75;;
19621;SDS011;9958;33.196;-97.114;2022-12-13T05:59:51;9.70;;;6.18;;
19621;SDS011;9958;33.196;-97.114;2022-12-13T06:02:20;10.60;;;6.05;;
19621;SDS011;9958;33.196;-97.114;2022-12-13T06:04:48;11.32;;;5.93;;
19621;SDS011;9958;33.196;-97.114;2022-12-13T06:07:18;7.82;;;5.18;;
19621;SDS011;9958;33.196;-97.114;2022-12-13T06:09:46;10.32;;;6.72;;
19621;SDS011;9958;33.196;-97.114;2022-12-13T06:12:14;8.35;;;6.15;;
19621;SDS011;9958;33.196;-97.114;2022-12-13T06:14:43;9.77;;;6.20;;
19621;SDS011;9958;33.196;-97.114;2022-12-13T06:17:11;13.35;;;5.82;;
19621;SDS011;9958;33.196;-97.114;2022-12-13T06:19:39;10.98;;;5.47;;
19621;SDS011;9958;33.196;-97.114;2022-12-13T06:22:08;14.45;;;6.97;;
19621;SDS011;9958;33.196;-97.114;2022-12-13T06:24:38;9.88;;;6.45;;
19621;SDS011;9958;33.196;-97.114;2022-12-13T06:27:06;11.07;;;6.32;;
19621;SDS011;9958;33.196;-97.114;2022-12-13T06:29:34;9.18;;;5.95;;
19621;SDS011;9958;33.196;-97.114;2022-12-13T06:32:03;10.00;;;6.32;;
19621;SDS011;9958;33.196;-97.114;2022-12-13T06:34:32;13.32;;;6.63;;
19621;SDS011;9958;33.196;-97.114;2022-12-13T06:37:01;13.43;;;6.95;;
19621;SDS011;9958;33.196;-97.114;2022-12-13T06:39:31;11.35;;;6.55;;
19621;SDS011;9958;33.196;-97.114;2022-12-13T06:42:02;12.52;;;6.80;;
19621;SDS011;9958;33.196;-97.114;2022-12-13T06:44:32;14.32;;;6.57;;
19621;SDS011;9958;33.196;-97.114;2022-12-13T06:47:00;12.18;;;6.93;;
19621;SDS011;9958;33.196;-97.114;2022-12-13T06:49:28;13.38;;;6.65;;
19621;SDS011;9958;33.196;-97.114;2022-12-13T06:51:57;12.27;;;6.45;;
19621;SDS011;9958;33.196;-97.114;2022-12-13T06:54:25;11.82;;;6.90;;
19621;SDS011;9958;33.196;-97.114;2022-12-13T06:56:53;12.38;;;6.97;;
19621;SDS011;9958;33.196;-97.114;2022-12-13T06:59:23;17.73;;;7.82;;
19621;SDS011;9958;33.196;-97.114;2022-12-13T07:01:51;12.70;;;7.78;;
19621;SDS011;9958;33.196;-97.114;2022-12-13T07:04:20;12.13;;;6.70;;
19621;SDS011;9958;33.196;-97.114;2022-12-13T07:06:48;12.55;;;7.32;;
19621;SDS011;9958;33.196;-97.114;2022-12-13T07:09:16;14.50;;;7.72;;
19621;SDS011;9958;33.196;-97.114;2022-12-13T07:11:45;14.77;;;7.72;;
19621;SDS011;9958;33.196;-97.114;2022-12-13T07:14:13;14.77;;;7.72;;
19621;SDS011;9958;33.196;-97.114;2022-12-13T07:16:43;12.52;;;7.10;;
19621;SDS011;9958;33.196;-97.114;2022-12-13T07:19:12;14.50;;;7.47;;
19621;SDS011;9958;33.196;-97.114;2022-12-13T07:21:40;14.27;;;7.55;;
19621;SDS011;9958;33.196;-97.114;2022-12-13T07:24:08;18.27;;;7.55;;
19621;SDS011;9958;33.196;-97.114;2022-12-13T07:26:37;14.00;;;7.75;;
19621;SDS011;9958;33.196;-97.114;2022-12-13T07:29:05;13.00;;;6.90;;
19621;SDS011;9958;33.196;-97.114;2022-12-13T07:31:33;13.90;;;7.68;;
19621;SDS011;9958;33.196;-97.114;2022-12-13T07:34:03;13.93;;;8.18;;
19621;SDS011;9958;33.196;-97.114;2022-12-13T07:36:32;14.90;;;7.93;;
19621;SDS011;9958;33.196;-97.114;2022-12-13T07:39:00;11.73;;;7.13;;
19621;SDS011;9958;33.196;-97.114;2022-12-13T07:41:28;14.35;;;8.02;;
19621;SDS011;9958;33.196;-97.114;2022-12-13T07:43:57;13.48;;;8.30;;
19621;SDS011;9958;33.196;-97.114;2022-12-13T07:46:25;13.77;;;7.38;;
19621;SDS011;9958;33.196;-97.114;2022-12-13T07:48:53;13.65;;;7.00;;
19621;SDS011;9958;33.196;-97.114;2022-12-13T07:51:23;12.77;;;7.45;;
19621;SDS011;9958;33.196;-97.114;2022-12-13T07:53:51;12.13;;;7.28;;
19621;SDS011;9958;33.196;-97.114;2022-12-13T07:56:20;9.82;;;6.68;;
19621;SDS011;9958;33.196;-97.114;2022-12-13T07:58:48;10.20;;;6.15;;
19621;SDS011;9958;33.196;-97.114;2022-12-13T08:01:16;11.73;;;6.93;;
19621;SDS011;9958;33.196;-97.114;2022-12-13T08:03:46;10.63;;;6.18;;
19621;SDS011;9958;33.196;-97.114;2022-12-13T08:06:14;9.52;;;6.72;;
19621;SDS011;9958;33.196;-97.114;2022-12-13T08:08:45;10.13;;;6.63;;
19621;SDS011;9958;33.196;-97.114;2022-12-13T08:11:15;9.60;;;5.82;;
19621;SDS011;9958;33.196;-97.114;2022-12-13T08:13:43;11.20;;;6.45;;
19621;SDS011;9958;33.196;-97.114;2022-12-13T08:16:12;10.32;;;6.47;;
19621;SDS011;9958;33.196;-97.114;2022-12-13T08:18:42;13.05;;;7.10;;
19621;SDS011;9958;33.196;-97.114;2022-12-13T08:21:12;11.65;;;7.20;;
19621;SDS011;9958;33.196;-97.114;2022-12-13T08:23:41;11.43;;;6.30;;
19621;SDS011;9958;33.196;-97.114;2022-12-13T08:26:10;12.82;;;6.35;;
19621;SDS011;9958;33.196;-97.114;2022-12-13T08:28:39;11.98;;;6.80;;
19621;SDS011;9958;33.196;-97.114;2022-12-13T08:31:08;10.90;;;6.40;;
19621;SDS011;9958;33.196;-97.114;2022-12-13T08:33:39;9.18;;;6.28;;
19621;SDS011;9958;33.196;-97.114;2022-12-13T08:36:10;10.95;;;6.60;;
19621;SDS011;9958;33.196;-97.114;2022-12-13T08:38:40;13.00;;;7.50;;
19621;SDS011;9958;33.196;-97.114;2022-12-13T08:41:08;10.23;;;6.72;;
19621;SDS011;9958;33.196;-97.114;2022-12-13T08:43:38;10.95;;;6.95;;
19621;SDS011;9958;33.196;-97.114;2022-12-13T08:46:07;11.20;;;6.40;;
19621;SDS011;9958;33.196;-97.114;2022-12-13T08:48:35;14.30;;;7.82;;
19621;SDS011;9958;33.196;-97.114;2022-12-13T08:51:04;12.07;;;7.47;;
19621;SDS011;9958;33.196;-97.114;2022-12-13T08:53:34;10.52;;;7.20;;
19621;SDS011;9958;33.196;-97.114;2022-12-13T08:56:02;15.18;;;6.93;;
19621;SDS011;9958;33.196;-97.114;2022-12-13T08:58:33;13.60;;;7.53;;
19621;SDS011;9958;33.196;-97.114;2022-12-13T09:01:04;10.75;;;7.07;;
19621;SDS011;9958;33.196;-97.114;2022-12-13T09:03:32;12.07;;;8.40;;
19621;SDS011;9958;33.196;-97.114;2022-12-13T09:06:05;14.35;;;8.77;;
19621;SDS011;9958;33.196;-97.114;2022-12-13T09:08:37;11.63;;;7.95;;
19621;SDS011;9958;33.196;-97.114;2022-12-13T09:11:06;11.90;;;7.57;;
19621;SDS011;9958;33.196;-97.114;2022-12-13T09:13:37;18.42;;;8.88;;
19621;SDS011;9958;33.196;-97.114;2022-12-13T09:16:07;15.18;;;8.98;;
19621;SDS011;9958;33.196;-97.114;2022-12-13T09:18:38;13.35;;;8.57;;
19621;SDS011;9958;33.196;-97.114;2022-12-13T09:21:07;14.10;;;8.77;;
19621;SDS011;9958;33.196;-97.114;2022-12-13T09:23:36;15.18;;;8.68;;
19621;SDS011;9958;33.196;-97.114;2022-12-13T09:26:06;16.60;;;9.15;;
19621;SDS011;9958;33.196;-97.114;2022-12-13T09:28:37;15.95;;;9.02;;
19621;SDS011;9958;33.196;-97.114;2022-12-13T09:31:06;17.73;;;9.40;;
19621;SDS011;9958;33.196;-97.114;2022-12-13T09:33:36;14.13;;;9.25;;
19621;SDS011;9958;33.196;-97.114;2022-12-13T09:36:05;13.55;;;8.63;;
19621;SDS011;9958;33.196;-97.114;2022-12-13T09:38:34;15.43;;;9.05;;
19621;SDS011;9958;33.196;-97.114;2022-12-13T09:41:09;17.63;;;9.50;;
19621;SDS011;9958;33.196;-97.114;2022-12-13T09:43:54;17.30;;;8.95;;
19621;SDS011;9958;33.196;-97.114;2022-12-13T09:46:26;17.13;;;9.80;;
19621;SDS011;9958;33.196;-97.114;2022-12-13T09:48:56;14.75;;;9.07;;
19621;SDS011;9958;33.196;-97.114;2022-12-13T09:51:27;15.02;;;8.98;;
19621;SDS011;9958;33.196;-97.114;2022-12-13T09:53:58;12.70;;;8.68;;
19621;SDS011;9958;33.196;-97.114;2022-12-13T09:56:27;15.65;;;9.57;;
19621;SDS011;9958;33.196;-97.114;2022-12-13T09:58:57;14.23;;;8.90;;
19621;SDS011;9958;33.196;-97.114;2022-12-13T10:01:26;16.70;;;9.30;;
19621;SDS011;9958;33.196;-97.114;2022-12-13T10:03:54;18.52;;;9.35;;
19621;SDS011;9958;33.196;-97.114;2022-12-13T10:06:27;15.38;;;9.27;;
19621;SDS011;9958;33.196;-97.114;2022-12-13T10:08:57;16.02;;;9.18;;
19621;SDS011;9958;33.196;-97.114;2022-12-13T10:11:27;15.88;;;10.00;;
19621;SDS011;9958;33.196;-97.114;2022-12-13T10:13:58;14.15;;;8.95;;
19621;SDS011;9958;33.196;-97.114;2022-12-13T10:16:30;14.85;;;9.35;;
19621;SDS011;9958;33.196;-97.114;2022-12-13T10:19:11;15.20;;;8.93;;
19621;SDS011;9958;33.196;-97.114;2022-12-13T10:21:44;13.02;;;8.95;;
19621;SDS011;9958;33.196;-97.114;2022-12-13T10:24:14;15.10;;;9.18;;
19621;SDS011;9958;33.196;-97.114;2022-12-13T10:26:46;14.93;;;9.02;;
19621;SDS011;9958;33.196;-97.114;2022-12-13T10:29:16;13.35;;;8.82;;
19621;SDS011;9958;33.196;-97.114;2022-12-13T10:31:45;12.27;;;8.63;;
19621;SDS011;9958;33.196;-97.114;2022-12-13T10:34:17;13.57;;;8.25;;
19621;SDS011;9958;33.196;-97.114;2022-12-13T10:36:49;13.02;;;7.47;;
19621;SDS011;9958;33.196;-97.114;2022-12-13T10:39:19;11.55;;;8.15;;
19621;SDS011;9958;33.196;-97.114;2022-12-13T10:42:04;12.20;;;8.50;;
19621;SDS011;9958;33.196;-97.114;2022-12-13T10:44:40;14.07;;;8.38;;
19621;SDS011;9958;33.196;-97.114;2022-12-13T10:47:13;12.50;;;8.40;;
19621;SDS011;9958;33.196;-97.114;2022-12-13T10:49:48;15.02;;;9.07;;
19621;SDS011;9958;33.196;-97.114;2022-12-13T10:52:19;13.40;;;8.77;;
19621;SDS011;9958;33.196;-97.114;2022-12-13T10:54:52;11.55;;;8.45;;
19621;SDS011;9958;33.196;-97.114;2022-12-13T10:57:21;13.70;;;7.45;;
19621;SDS011;9958;33.196;-97.114;2022-12-13T10:59:51;13.93;;;8.27;;
19621;SDS011;9958;33.196;-97.114;2022-12-13T11:02:29;12.88;;;7.45;;
19621;SDS011;9958;33.196;-97.114;2022-12-13T11:05:17;12.55;;;7.88;;
19621;SDS011;9958;33.196;-97.114;2022-12-13T11:07:50;16.60;;;8.90;;
19621;SDS011;9958;33.196;-97.114;2022-12-13T11:10:22;13.70;;;8.32;;
19621;SDS011;9958;33.196;-97.114;2022-12-13T11:12:52;12.98;;;7.60;;
19621;SDS011;9958;33.196;-97.114;2022-12-13T11:15:28;13.50;;;7.70;;
19621;SDS011;9958;33.196;-97.114;2022-12-13T11:17:59;9.50;;;6.93;;
19621;SDS011;9958;33.196;-97.114;2022-12-13T11:20:30;10.60;;;7.55;;
19621;SDS011;9958;33.196;-97.114;2022-12-13T11:23:01;10.45;;;7.68;;
19621;SDS011;9958;33.196;-97.114;2022-12-13T11:25:35;9.35;;;6.80;;
19621;SDS011;9958;33.196;-97.114;2022-12-13T11:28:11;10.68;;;7.03;;
19621;SDS011;9958;33.196;-97.114;2022-12-13T11:30:54;14.70;;;7.72;;
19621;SDS011;9958;33.196;-97.114;2022-12-13T11:33:36;10.20;;;7.00;;
19621;SDS011;9958;33.196;-97.114;2022-12-13T11:36:16;11.40;;;7.38;;
19621;SDS011;9958;33.196;-97.114;2022-12-13T11:39:02;12.75;;;7.65;;
19621;SDS011;9958;33.196;-97.114;2022-12-13T11:41:40;9.57;;;6.22;;
19621;SDS011;9958;33.196;-97.114;2022-12-13T11:44:15;9.40;;;6.80;;
19621;SDS011;9958;33.196;-97.114;2022-12-13T11:46:51;9.07;;;6.78;;
19621;SDS011;9958;33.196;-97.114;2022-12-13T11:49:24;11.23;;;6.93;;
19621;SDS011;9958;33.196;-97.114;2022-12-13T11:52:01;9.90;;;6.65;;
19621;SDS011;9958;33.196;-97.114;2022-12-13T11:54:37;11.45;;;6.97;;
19621;SDS011;9958;33.196;-97.114;2022-12-13T11:57:16;10.85;;;7.60;;
19621;SDS011;9958;33.196;-97.114;2022-12-13T11:59:57;11.45;;;7.40;;
19621;SDS011;9958;33.196;-97.114;2022-12-13T12:02:33;8.90;;;6.70;;
19621;SDS011;9958;33.196;-97.114;2022-12-13T12:05:05;9.35;;;7.28;;
19621;SDS011;9958;33.196;-97.114;2022-12-13T12:07:48;12.40;;;6.88;;
19621;SDS011;9958;33.196;-97.114;2022-12-13T12:10:22;9.48;;;6.95;;
19621;SDS011;9958;33.196;-97.114;2022-12-13T12:12:55;9.98;;;7.13;;
19621;SDS011;9958;33.196;-97.114;2022-12-13T12:15:31;9.25;;;6.68;;
19621;SDS011;9958;33.196;-97.114;2022-12-13T12:18:04;13.48;;;8.90;;
19621;SDS011;9958;33.196;-97.114;2022-12-13T12:20:43;11.75;;;6.70;;
19621;SDS011;9958;33.196;-97.114;2022-12-13T12:23:26;9.50;;;7.03;;
19621;SDS011;9958;33.196;-97.114;2022-12-13T12:26:07;9.13;;;6.45;;
19621;SDS011;9958;33.196;-97.114;2022-12-13T12:28:45;11.05;;;7.82;;
19621;SDS011;9958;33.196;-97.114;2022-12-13T12:31:38;10.20;;;6.95;;
19621;SDS011;9958;33.196;-97.114;2022-12-13T12:34:17;11.50;;;7.05;;
19621;SDS011;9958;33.196;-97.114;2022-12-13T12:36:56;10.23;;;7.13;;
19621;SDS011;9958;33.196;-97.114;2022-12-13T12:39:33;10.57;;;7.20;;
19621;SDS011;9958;33.196;-97.114;2022-12-13T12:42:23;14.43;;;7.40;;
19621;SDS011;9958;33.196;-97.114;2022-12-13T12:45:05;10.85;;;6.90;;
19621;SDS011;9958;33.196;-97.114;2022-12-13T12:47:56;9.18;;;6.88;;
19621;SDS011;9958;33.196;-97.114;2022-12-13T12:50:43;12.23;;;6.95;;
19621;SDS011;9958;33.196;-97.114;2022-12-13T12:53:21;10.80;;;6.72;;
19621;SDS011;9958;33.196;-97.114;2022-12-13T12:55:59;7.50;;;6.45;;
19621;SDS011;9958;33.196;-97.114;2022-12-13T12:58:40;11.93;;;7.03;;
19621;SDS011;9958;33.196;-97.114;2022-12-13T13:01:18;8.98;;;6.88;;
19621;SDS011;9958;33.196;-97.114;2022-12-13T13:03:58;7.75;;;6.32;;
19621;SDS011;9958;33.196;-97.114;2022-12-13T13:06:34;10.55;;;6.50;;
19621;SDS011;9958;33.196;-97.114;2022-12-13T13:09:07;8.55;;;6.90;;
19621;SDS011;9958;33.196;-97.114;2022-12-13T13:11:37;9.65;;;5.60;;
19621;SDS011;9958;33.196;-97.114;2022-12-13T13:16:54;12.27;;;6.15;;
19621;SDS011;9958;33.196;-97.114;2022-12-13T13:22:27;9.05;;;5.75;;
19621;SDS011;9958;33.196;-97.114;2022-12-13T13:24:57;10.30;;;5.88;;
19621;SDS011;9958;33.196;-97.114;2022-12-13T13:27:40;11.10;;;6.05;;
19621;SDS011;9958;33.196;-97.114;2022-12-13T13:30:14;8.45;;;5.78;;
19621;SDS011;9958;33.196;-97.114;2022-12-13T13:32:45;6.57;;;5.22;;
19621;SDS011;9958;33.196;-97.114;2022-12-13T13:47:36;9.68;;;4.75;;
19621;SDS011;9958;33.196;-97.114;2022-12-13T13:56:30;4.95;;;4.07;;
19621;SDS011;9958;33.196;-97.114;2022-12-13T13:59:20;5.70;;;4.38;;
19621;SDS011;9958;33.196;-97.114;2022-12-13T14:02:33;7.15;;;4.47;;
19621;SDS011;9958;33.196;-97.114;2022-12-13T14:05:31;5.60;;;4.43;;
19621;SDS011;9958;33.196;-97.114;2022-12-13T14:08:33;6.68;;;4.68;;
19621;SDS011;9958;33.196;-97.114;2022-12-13T14:11:14;5.68;;;4.97;;
19621;SDS011;9958;33.196;-97.114;2022-12-13T14:13:58;6.10;;;5.00;;
19621;SDS011;9958;33.196;-97.114;2022-12-13T14:23:33;5.80;;;4.65;;
19621;SDS011;9958;33.196;-97.114;2022-12-13T14:26:14;5.75;;;4.65;;
19621;SDS011;9958;33.196;-97.114;2022-12-13T14:28:52;5.65;;;4.88;;
19621;SDS011;9958;33.196;-97.114;2022-12-13T14:31:32;9.40;;;4.70;;
19621;SDS011;9958;33.196;-97.114;2022-12-13T14:34:03;5.55;;;4.43;;
19621;SDS011;9958;33.196;-97.114;2022-12-13T14:36:34;5.55;;;3.30;;
19621;SDS011;9958;33.196;-97.114;2022-12-13T14:39:04;3.72;;;2.42;;
19621;SDS011;9958;33.196;-97.114;2022-12-13T14:41:33;2.10;;;1.42;;
19621;SDS011;9958;33.196;-97.114;2022-12-13T14:44:12;2.15;;;1.02;;
19621;SDS011;9958;33.196;-97.114;2022-12-13T14:46:52;2.97;;;1.60;;
19621;SDS011;9958;33.196;-97.114;2022-12-13T14:49:22;3.25;;;1.63;;
19621;SDS011;9958;33.196;-97.114;2022-12-13T14:51:53;3.53;;;2.28;;
19621;SDS011;9958;33.196;-97.114;2022-12-13T14:54:27;4.03;;;2.60;;
19621;SDS011;9958;33.196;-97.114;2022-12-13T14:56:59;7.93;;;3.10;;
19621;SDS011;9958;33.196;-97.114;2022-12-13T14:59:29;2.53;;;1.90;;
19621;SDS011;9958;33.196;-97.114;2022-12-13T15:02:00;6.68;;;2.80;;
19621;SDS011;9958;33.196;-97.114;2022-12-13T15:04:31;3.97;;;2.03;;
19621;SDS011;9958;33.196;-97.114;2022-12-13T15:07:03;7.10;;;2.30;;
19621;SDS011;9958;33.196;-97.114;2022-12-13T15:09:35;10.80;;;2.45;;
19621;SDS011;9958;33.196;-97.114;2022-12-13T15:12:08;3.97;;;2.35;;
19621;SDS011;9958;33.196;-97.114;2022-12-13T15:14:40;3.30;;;1.90;;
19621;SDS011;9958;33.196;-97.114;2022-12-13T15:19:57;5.60;;;2.55;;
19621;SDS011;9958;33.196;-97.114;2022-12-13T15:22:26;3.20;;;2.65;;
19621;SDS011;9958;33.196;-97.114;2022-12-13T15:24:55;6.53;;;2.20;;
19621;SDS011;9958;33.196;-97.114;2022-12-13T15:27:23;4.05;;;2.47;;
19621;SDS011;9958;33.196;-97.114;2022-12-13T15:29:52;8.50;;;2.58;;